Time;durP1;ratioP1;P1;durP2;ratioP2;P2;SDS_P1;SDS_P2;PMS_P1;PMS_P2;Temp;Humidity;BMP_temperature;BMP_pressure;BME280_temperature;BME280_humidity;BME280_pressure;Samples;Min_cycle;Max_cycle;Signal;HPM_P1;HPM_P2
2022/03/13 00:01:23;;;;;;;32.30;21.60;;;;;;;;;;6196122;23;20146;-84
2022/03/13 00:03:49;;;;;;;34.07;22.13;;;;;;;;;;6194827;23;20146;-83
2022/03/13 00:06:22;;;;;;;31.70;21.53;;;;;;;;;;6195583;23;20154;-82
2022/03/13 00:08:54;;;;;;;33.93;21.53;;;;;;;;;;6192444;23;20321;-83
2022/03/13 00:11:20;;;;;;;33.80;21.17;;;;;;;;;;6195351;23;20198;-82
2022/03/13 00:13:51;;;;;;;32.53;20.20;;;;;;;;;;6196973;23;20186;-82
2022/03/13 00:16:18;;;;;;;33.97;20.23;;;;;;;;;;6198669;23;20202;-82
2022/03/13 00:18:48;;;;;;;32.73;20.73;;;;;;;;;;6197349;23;20624;-81
2022/03/13 00:21:15;;;;;;;31.20;21.23;;;;;;;;;;6196963;23;20146;-81
2022/03/13 00:23:42;;;;;;;35.17;21.93;;;;;;;;;;6196996;23;20229;-82
2022/03/13 00:26:08;;;;;;;34.53;22.03;;;;;;;;;;6196723;23;20558;-83
2022/03/13 00:28:34;;;;;;;37.03;23.23;;;;;;;;;;6196835;23;20166;-83
2022/03/13 00:31:01;;;;;;;35.07;21.90;;;;;;;;;;6194287;23;20158;-83
2022/03/13 00:33:28;;;;;;;33.30;22.07;;;;;;;;;;6196661;23;20236;-83
2022/03/13 00:35:54;;;;;;;32.87;20.53;;;;;;;;;;6197217;23;20149;-84
2022/03/13 00:38:23;;;;;;;33.00;20.27;;;;;;;;;;6197038;23;20226;-83
2022/03/13 00:40:51;;;;;;;36.43;21.03;;;;;;;;;;6197358;23;20159;-83
2022/03/13 00:43:19;;;;;;;33.20;21.37;;;;;;;;;;6196512;23;20166;-83
2022/03/13 00:45:45;;;;;;;34.77;22.07;;;;;;;;;;6197842;23;20177;-83
2022/03/13 00:48:11;;;;;;;32.07;21.53;;;;;;;;;;6197252;23;20210;-83
2022/03/13 00:50:37;;;;;;;38.53;22.33;;;;;;;;;;6198062;23;20604;-82
2022/03/13 00:53:03;;;;;;;32.00;20.83;;;;;;;;;;6197320;23;20232;-83
2022/03/13 00:55:29;;;;;;;31.07;20.60;;;;;;;;;;6198400;23;20176;-83
2022/03/13 00:57:55;;;;;;;39.83;22.37;;;;;;;;;;6196354;23;20159;-83
2022/03/13 01:00:24;;;;;;;32.63;21.27;;;;;;;;;;6197052;23;20194;-82
2022/03/13 01:02:50;;;;;;;38.47;22.40;;;;;;;;;;6196982;23;20154;-83
2022/03/13 01:05:23;;;;;;;34.90;21.83;;;;;;;;;;6197432;23;20170;-82
2022/03/13 01:07:50;;;;;;;37.07;21.97;;;;;;;;;;6198379;23;20173;-82
2022/03/13 01:10:16;;;;;;;33.70;22.73;;;;;;;;;;6196113;23;20509;-82
2022/03/13 01:12:42;;;;;;;33.63;22.07;;;;;;;;;;6198061;23;20171;-83
2022/03/13 01:15:08;;;;;;;34.97;22.27;;;;;;;;;;6198627;23;20146;-83
2022/03/13 01:17:35;;;;;;;34.57;22.40;;;;;;;;;;6199061;23;20154;-83
2022/03/13 01:20:02;;;;;;;31.30;21.47;;;;;;;;;;6190228;23;20249;-81
2022/03/13 01:22:28;;;;;;;31.07;21.57;;;;;;;;;;6189998;23;20588;-79
2022/03/13 01:24:54;;;;;;;33.37;21.27;;;;;;;;;;6163445;23;20159;-79
2022/03/13 01:27:22;;;;;;;33.10;22.13;;;;;;;;;;6189231;23;20155;-79
2022/03/13 01:29:48;;;;;;;34.13;22.40;;;;;;;;;;6189693;23;20177;-79
2022/03/13 01:32:15;;;;;;;35.20;21.67;;;;;;;;;;6190341;23;20158;-79
2022/03/13 01:34:46;;;;;;;34.87;22.60;;;;;;;;;;6189567;23;20178;-79
2022/03/13 01:37:13;;;;;;;33.20;21.77;;;;;;;;;;6189759;23;20146;-79
2022/03/13 01:39:40;;;;;;;35.50;22.43;;;;;;;;;;6189298;23;20169;-79
2022/03/13 01:42:06;;;;;;;36.07;21.93;;;;;;;;;;6189215;23;20470;-79
2022/03/13 01:44:32;;;;;;;42.53;23.87;;;;;;;;;;6189741;23;20537;-79
2022/03/13 01:47:00;;;;;;;52.93;27.23;;;;;;;;;;6189205;23;20183;-79
2022/03/13 01:49:27;;;;;;;50.40;24.67;;;;;;;;;;6187554;23;20223;-79
2022/03/13 01:51:53;;;;;;;41.30;23.53;;;;;;;;;;6189398;23;20147;-79
2022/03/13 01:54:19;;;;;;;35.43;21.90;;;;;;;;;;6190021;23;20256;-81
2022/03/13 01:56:45;;;;;;;33.77;21.50;;;;;;;;;;6189643;23;20154;-79
2022/03/13 01:59:14;;;;;;;33.17;19.83;;;;;;;;;;6192428;23;20173;-79
2022/03/13 02:01:41;;;;;;;31.93;20.03;;;;;;;;;;6192214;23;20151;-79
2022/03/13 02:04:07;;;;;;;30.63;20.57;;;;;;;;;;6189640;23;20146;-79
2022/03/13 02:06:33;;;;;;;33.53;20.80;;;;;;;;;;6189288;23;20151;-79
2022/03/13 02:09:00;;;;;;;35.30;21.10;;;;;;;;;;6189090;23;20577;-79
2022/03/13 02:11:45;;;;;;;32.13;20.57;;;;;;;;;;6188819;23;20615;-79
2022/03/13 02:14:13;;;;;;;34.97;20.90;;;;;;;;;;6189131;23;20166;-79
2022/03/13 02:16:39;;;;;;;31.37;20.33;;;;;;;;;;6187337;23;20154;-79
2022/03/13 02:19:09;;;;;;;27.47;19.97;;;;;;;;;;6188682;23;20177;-79
2022/03/13 02:21:39;;;;;;;29.43;19.57;;;;;;;;;;6189167;23;20132;-79
2022/03/13 02:24:08;;;;;;;33.13;19.70;;;;;;;;;;6188719;23;20149;-80
2022/03/13 02:26:34;;;;;;;33.23;20.30;;;;;;;;;;6188672;23;20188;-79
2022/03/13 02:29:00;;;;;;;32.53;19.63;;;;;;;;;;6186999;23;20150;-79
2022/03/13 02:31:27;;;;;;;33.07;19.77;;;;;;;;;;6188896;23;20184;-79
2022/03/13 02:33:55;;;;;;;30.63;19.87;;;;;;;;;;6188562;23;20187;-79
2022/03/13 02:36:24;;;;;;;29.10;19.13;;;;;;;;;;6188395;23;20156;-79
2022/03/13 02:38:50;;;;;;;31.20;19.37;;;;;;;;;;6187038;23;20197;-79
2022/03/13 02:41:16;;;;;;;32.70;21.23;;;;;;;;;;6186820;23;20165;-79
2022/03/13 02:43:42;;;;;;;30.20;19.23;;;;;;;;;;6189571;23;20185;-79
2022/03/13 02:46:19;;;;;;;29.43;20.33;;;;;;;;;;6188941;23;20158;-79
2022/03/13 02:48:45;;;;;;;30.73;19.53;;;;;;;;;;6188777;23;20224;-79
2022/03/13 02:51:11;;;;;;;31.43;20.03;;;;;;;;;;6183619;23;20157;-79
2022/03/13 02:53:38;;;;;;;36.97;20.00;;;;;;;;;;6188062;23;20180;-79
2022/03/13 02:56:05;;;;;;;34.33;19.27;;;;;;;;;;6186574;23;20203;-80
2022/03/13 02:58:32;;;;;;;27.43;18.43;;;;;;;;;;6186834;23;20153;-80
2022/03/13 03:01:01;;;;;;;32.30;19.27;;;;;;;;;;6188828;23;20174;-80
2022/03/13 03:03:27;;;;;;;31.93;19.53;;;;;;;;;;6162659;23;20193;-80
2022/03/13 03:05:53;;;;;;;32.90;19.60;;;;;;;;;;6187022;23;20157;-79
2022/03/13 03:08:19;;;;;;;31.17;19.03;;;;;;;;;;6189038;23;20150;-80
2022/03/13 03:10:46;;;;;;;29.83;18.93;;;;;;;;;;6188670;23;20508;-80
2022/03/13 03:13:13;;;;;;;30.17;20.33;;;;;;;;;;6188685;23;20551;-80
2022/03/13 03:15:40;;;;;;;30.27;19.83;;;;;;;;;;6189141;23;20152;-80
2022/03/13 03:18:09;;;;;;;29.97;19.17;;;;;;;;;;6188546;23;20168;-79
2022/03/13 03:20:35;;;;;;;30.43;19.53;;;;;;;;;;6188174;23;20182;-80
2022/03/13 03:23:01;;;;;;;30.10;19.13;;;;;;;;;;6188655;23;20583;-80
2022/03/13 03:25:27;;;;;;;28.40;19.30;;;;;;;;;;6188976;23;20158;-79
2022/03/13 03:27:54;;;;;;;30.10;19.73;;;;;;;;;;6188366;23;20156;-80
2022/03/13 03:30:22;;;;;;;30.47;19.87;;;;;;;;;;6187013;23;20180;-80
2022/03/13 03:32:48;;;;;;;27.53;18.00;;;;;;;;;;6188328;23;20181;-80
2022/03/13 03:35:15;;;;;;;29.07;18.60;;;;;;;;;;6188487;23;20531;-80
2022/03/13 03:37:41;;;;;;;29.90;19.13;;;;;;;;;;6188236;23;20146;-79
2022/03/13 03:40:08;;;;;;;30.30;19.03;;;;;;;;;;6187279;23;20177;-80
2022/03/13 03:42:35;;;;;;;30.87;19.17;;;;;;;;;;6187998;23;20161;-79
2022/03/13 03:45:02;;;;;;;27.70;18.60;;;;;;;;;;6189040;23;20206;-80
2022/03/13 03:47:28;;;;;;;30.93;18.47;;;;;;;;;;6187061;23;20159;-80
2022/03/13 03:49:54;;;;;;;35.87;19.57;;;;;;;;;;6188382;23;20200;-80
2022/03/13 03:52:20;;;;;;;30.23;19.97;;;;;;;;;;6187112;23;20152;-80
2022/03/13 03:54:46;;;;;;;28.37;18.50;;;;;;;;;;6187542;23;20158;-80
2022/03/13 03:57:12;;;;;;;29.33;18.93;;;;;;;;;;6188335;23;20145;-80
2022/03/13 03:59:38;;;;;;;29.70;19.27;;;;;;;;;;6188302;23;20280;-80
2022/03/13 04:02:04;;;;;;;32.13;19.53;;;;;;;;;;6186500;23;20156;-80
2022/03/13 04:04:30;;;;;;;28.70;18.63;;;;;;;;;;6188930;23;20183;-80
2022/03/13 04:06:57;;;;;;;27.63;18.23;;;;;;;;;;6187781;23;20158;-80
2022/03/13 04:09:23;;;;;;;36.07;19.43;;;;;;;;;;6188047;23;20174;-80
2022/03/13 04:11:49;;;;;;;31.93;18.87;;;;;;;;;;6187634;23;20150;-80
2022/03/13 04:14:17;;;;;;;31.40;18.70;;;;;;;;;;6188222;23;20180;-80
2022/03/13 04:16:43;;;;;;;31.97;19.90;;;;;;;;;;6186992;23;20153;-80
2022/03/13 04:19:09;;;;;;;27.63;18.80;;;;;;;;;;6186878;23;20209;-80
2022/03/13 04:21:39;;;;;;;32.00;19.03;;;;;;;;;;6187319;23;20724;-80
2022/03/13 04:24:06;;;;;;;31.53;19.23;;;;;;;;;;6189213;23;20156;-80
2022/03/13 04:26:32;;;;;;;34.90;20.10;;;;;;;;;;6189208;23;20462;-80
2022/03/13 04:28:58;;;;;;;29.33;18.80;;;;;;;;;;6189807;23;20232;-80
2022/03/13 04:31:24;;;;;;;30.37;19.07;;;;;;;;;;6190037;23;20641;-80
2022/03/13 04:33:50;;;;;;;30.70;19.83;;;;;;;;;;6189734;23;20255;-80
2022/03/13 04:36:26;;;;;;;30.93;18.97;;;;;;;;;;6188051;23;20162;-80
2022/03/13 04:38:52;;;;;;;31.77;19.20;;;;;;;;;;6190261;23;20141;-80
2022/03/13 04:41:18;;;;;;;28.47;18.87;;;;;;;;;;6189836;23;20149;-80
2022/03/13 04:43:44;;;;;;;31.77;18.53;;;;;;;;;;6188082;23;20206;-80
2022/03/13 04:46:10;;;;;;;33.10;19.50;;;;;;;;;;6188095;23;20157;-80
2022/03/13 04:48:36;;;;;;;32.67;19.73;;;;;;;;;;6188216;23;20161;-80
2022/03/13 04:51:03;;;;;;;29.63;19.20;;;;;;;;;;6189629;23;20170;-80
2022/03/13 04:53:29;;;;;;;30.77;19.07;;;;;;;;;;6190680;23;20625;-80
2022/03/13 04:55:56;;;;;;;29.57;18.33;;;;;;;;;;6189378;23;20149;-80
2022/03/13 04:58:22;;;;;;;36.37;20.10;;;;;;;;;;6190739;23;20167;-80
2022/03/13 05:00:48;;;;;;;33.77;18.93;;;;;;;;;;6188514;23;20232;-80
2022/03/13 05:03:15;;;;;;;30.13;19.30;;;;;;;;;;6189499;23;20154;-80
2022/03/13 05:05:41;;;;;;;34.40;19.30;;;;;;;;;;6187694;23;20245;-80
2022/03/13 05:08:15;;;;;;;32.77;20.00;;;;;;;;;;6186514;23;20183;-80
2022/03/13 05:10:42;;;;;;;31.40;18.80;;;;;;;;;;6186273;23;20175;-80
2022/03/13 05:13:09;;;;;;;31.73;19.20;;;;;;;;;;6189152;23;20554;-80
2022/03/13 05:15:36;;;;;;;31.07;19.20;;;;;;;;;;6188921;23;20146;-80
2022/03/13 05:18:02;;;;;;;31.73;19.97;;;;;;;;;;6186860;23;20610;-80
2022/03/13 05:20:29;;;;;;;29.13;19.30;;;;;;;;;;6187792;23;20261;-80
2022/03/13 05:22:55;;;;;;;28.97;18.70;;;;;;;;;;6187913;23;20160;-80
2022/03/13 05:25:23;;;;;;;31.37;19.20;;;;;;;;;;6189325;23;20149;-80
2022/03/13 05:27:49;;;;;;;32.70;19.73;;;;;;;;;;6189311;23;20148;-80
2022/03/13 05:30:15;;;;;;;30.67;19.23;;;;;;;;;;6188054;23;20192;-80
2022/03/13 05:32:42;;;;;;;35.23;19.67;;;;;;;;;;6189306;23;20182;-80
2022/03/13 05:35:08;;;;;;;30.53;19.67;;;;;;;;;;6163099;23;20543;-80
2022/03/13 05:37:34;;;;;;;32.07;19.10;;;;;;;;;;6188640;23;20190;-80
2022/03/13 05:40:00;;;;;;;29.20;18.87;;;;;;;;;;6189331;23;20170;-80
2022/03/13 05:42:27;;;;;;;30.63;19.40;;;;;;;;;;6187937;23;20615;-80
2022/03/13 05:44:53;;;;;;;31.47;19.00;;;;;;;;;;6188925;23;20249;-80
2022/03/13 05:47:19;;;;;;;29.27;18.67;;;;;;;;;;6190531;23;20161;-80
2022/03/13 05:49:46;;;;;;;33.60;19.47;;;;;;;;;;6197511;23;20620;-80
2022/03/13 05:52:16;;;;;;;28.70;19.17;;;;;;;;;;6194065;23;20142;-80
2022/03/13 05:54:42;;;;;;;31.10;19.67;;;;;;;;;;6188887;23;20192;-80
2022/03/13 05:57:09;;;;;;;29.50;19.20;;;;;;;;;;6189743;23;20161;-81
2022/03/13 05:59:36;;;;;;;29.17;18.60;;;;;;;;;;6189506;23;20547;-80
2022/03/13 06:02:03;;;;;;;29.97;19.30;;;;;;;;;;6189556;23;20164;-80
2022/03/13 06:04:30;;;;;;;26.87;18.43;;;;;;;;;;6191940;23;20154;-80
2022/03/13 06:06:56;;;;;;;29.13;18.33;;;;;;;;;;6189237;23;20153;-80
2022/03/13 06:09:22;;;;;;;31.73;18.93;;;;;;;;;;6189808;23;20248;-80
2022/03/13 06:11:48;;;;;;;30.40;19.43;;;;;;;;;;6188028;23;20212;-80
2022/03/13 06:14:14;;;;;;;31.60;19.97;;;;;;;;;;6185269;23;20673;-80
2022/03/13 06:16:40;;;;;;;35.27;21.03;;;;;;;;;;6188736;23;20146;-80
2022/03/13 06:19:06;;;;;;;32.43;19.23;;;;;;;;;;6186347;23;20537;-80
2022/03/13 06:21:32;;;;;;;31.60;18.77;;;;;;;;;;6187656;23;20228;-80
2022/03/13 06:23:58;;;;;;;28.27;18.53;;;;;;;;;;6185785;23;20242;-80
2022/03/13 06:26:24;;;;;;;32.00;19.87;;;;;;;;;;6185620;23;20162;-80
2022/03/13 06:28:50;;;;;;;30.63;19.10;;;;;;;;;;6186502;23;20499;-80
2022/03/13 06:31:16;;;;;;;28.30;18.90;;;;;;;;;;6188606;23;20217;-80
2022/03/13 06:33:42;;;;;;;32.33;19.87;;;;;;;;;;6186582;23;20239;-80
2022/03/13 06:36:10;;;;;;;31.73;18.03;;;;;;;;;;6189099;23;20163;-80
2022/03/13 06:38:36;;;;;;;32.93;18.63;;;;;;;;;;6189317;23;20147;-82
2022/03/13 06:41:02;;;;;;;27.63;18.40;;;;;;;;;;6187544;23;20180;-80
2022/03/13 06:43:28;;;;;;;29.87;18.13;;;;;;;;;;6189608;23;20154;-80
2022/03/13 06:45:54;;;;;;;30.83;19.40;;;;;;;;;;6189508;23;20156;-80
2022/03/13 06:48:21;;;;;;;34.13;19.90;;;;;;;;;;6189198;23;20169;-80
2022/03/13 06:50:48;;;;;;;29.07;19.30;;;;;;;;;;6189084;23;20185;-80
2022/03/13 06:53:14;;;;;;;32.43;19.07;;;;;;;;;;6189540;23;20607;-80
2022/03/13 06:55:40;;;;;;;29.27;19.10;;;;;;;;;;6189464;23;20200;-80
2022/03/13 06:58:06;;;;;;;36.63;19.07;;;;;;;;;;6187797;23;20174;-80
2022/03/13 07:00:33;;;;;;;29.57;18.90;;;;;;;;;;6188868;23;20170;-80
2022/03/13 07:03:00;;;;;;;28.20;17.97;;;;;;;;;;6187350;23;20172;-80
2022/03/13 07:05:26;;;;;;;31.47;18.30;;;;;;;;;;6189136;23;20724;-80
2022/03/13 07:07:54;;;;;;;30.03;18.53;;;;;;;;;;6187747;23;20153;-80
2022/03/13 07:10:20;;;;;;;31.63;18.67;;;;;;;;;;6188090;23;20314;-80
2022/03/13 07:12:48;;;;;;;29.03;17.80;;;;;;;;;;6186939;23;20517;-80
2022/03/13 07:15:14;;;;;;;26.20;17.83;;;;;;;;;;6187666;23;20599;-80
2022/03/13 07:17:44;;;;;;;24.53;17.07;;;;;;;;;;6186386;23;20177;-80
2022/03/13 07:20:10;;;;;;;30.17;18.33;;;;;;;;;;6198795;22;20235;-80
2022/03/13 07:22:37;;;;;;;30.73;18.50;;;;;;;;;;6255388;23;20508;-82
2022/03/13 07:25:03;;;;;;;27.07;17.17;;;;;;;;;;6228909;23;20156;-82
2022/03/13 07:27:29;;;;;;;27.40;17.53;;;;;;;;;;6257005;23;20202;-82
2022/03/13 07:29:55;;;;;;;30.30;17.47;;;;;;;;;;6256840;23;20619;-84
2022/03/13 07:32:21;;;;;;;26.10;16.50;;;;;;;;;;6229170;23;20602;-81
2022/03/13 07:34:47;;;;;;;24.37;15.87;;;;;;;;;;6229105;23;20199;-80
2022/03/13 07:37:13;;;;;;;26.40;16.73;;;;;;;;;;6229856;23;20529;-81
2022/03/13 07:39:41;;;;;;;25.80;16.23;;;;;;;;;;6227631;23;20158;-82
2022/03/13 07:42:07;;;;;;;31.23;16.27;;;;;;;;;;6254644;23;20180;-82
2022/03/13 07:44:34;;;;;;;26.03;17.17;;;;;;;;;;6255568;23;20153;-83
2022/03/13 07:47:00;;;;;;;26.13;16.70;;;;;;;;;;6256491;23;20160;-82
2022/03/13 07:49:26;;;;;;;26.07;15.83;;;;;;;;;;6257307;23;20180;-82
2022/03/13 07:51:52;;;;;;;25.70;15.97;;;;;;;;;;6257051;23;20168;-83
2022/03/13 07:54:19;;;;;;;29.87;17.20;;;;;;;;;;6256938;23;20180;-82
2022/03/13 07:56:45;;;;;;;26.30;16.33;;;;;;;;;;6229612;23;20496;-82
2022/03/13 07:59:11;;;;;;;27.50;16.70;;;;;;;;;;6229111;23;20660;-82
2022/03/13 08:01:37;;;;;;;22.00;14.67;;;;;;;;;;6231938;23;20207;-82
2022/03/13 08:04:05;;;;;;;25.63;15.73;;;;;;;;;;6259317;23;20161;-83
2022/03/13 08:06:39;;;;;;;22.20;14.17;;;;;;;;;;6231150;23;20586;-82
2022/03/13 08:09:05;;;;;;;22.03;14.33;;;;;;;;;;6259595;23;20216;-82
2022/03/13 08:11:34;;;;;;;20.57;14.40;;;;;;;;;;6258232;23;20184;-82
2022/03/13 08:14:00;;;;;;;23.83;15.70;;;;;;;;;;6229842;23;20199;-83
2022/03/13 08:16:27;;;;;;;28.97;14.97;;;;;;;;;;6257015;23;20142;-82
2022/03/13 08:18:53;;;;;;;25.87;15.10;;;;;;;;;;6258350;23;20146;-84
2022/03/13 08:21:19;;;;;;;20.60;14.40;;;;;;;;;;6230225;23;20185;-82
2022/03/13 08:23:46;;;;;;;19.50;14.57;;;;;;;;;;6230586;23;20667;-82
2022/03/13 08:26:12;;;;;;;20.73;15.00;;;;;;;;;;6225670;23;20164;-81
2022/03/13 08:28:38;;;;;;;18.67;13.47;;;;;;;;;;6250519;23;20144;-82
2022/03/13 08:31:04;;;;;;;25.30;14.03;;;;;;;;;;6251596;23;20166;-81
2022/03/13 08:33:30;;;;;;;22.43;14.00;;;;;;;;;;6251996;23;20174;-82
2022/03/13 08:35:56;;;;;;;19.23;13.90;;;;;;;;;;6254103;23;20152;-81
2022/03/13 08:38:22;;;;;;;18.90;13.30;;;;;;;;;;6226441;23;20177;-81
2022/03/13 08:40:49;;;;;;;22.27;14.23;;;;;;;;;;6252986;23;20162;-81
2022/03/13 08:43:15;;;;;;;20.97;14.23;;;;;;;;;;6253588;23;20149;-81
2022/03/13 08:45:41;;;;;;;24.20;14.67;;;;;;;;;;6252790;23;20155;-81
2022/03/13 08:48:07;;;;;;;20.37;14.23;;;;;;;;;;6253057;23;20323;-81
2022/03/13 08:50:33;;;;;;;20.60;14.60;;;;;;;;;;6226098;23;20177;-81
2022/03/13 08:52:59;;;;;;;20.80;14.50;;;;;;;;;;6252651;23;20195;-79
2022/03/13 08:55:26;;;;;;;20.67;14.67;;;;;;;;;;6253227;23;20208;-80
2022/03/13 08:57:52;;;;;;;21.33;14.57;;;;;;;;;;6253259;23;20145;-81
2022/03/13 09:00:18;;;;;;;22.70;14.67;;;;;;;;;;6253815;23;20223;-81
2022/03/13 09:02:45;;;;;;;20.17;14.40;;;;;;;;;;6225920;23;20165;-82
2022/03/13 09:05:11;;;;;;;18.43;14.63;;;;;;;;;;6252694;23;20196;-81
2022/03/13 09:07:37;;;;;;;26.77;16.10;;;;;;;;;;6251348;23;20602;-81
2022/03/13 09:10:06;;;;;;;23.77;16.07;;;;;;;;;;6251744;23;20169;-81
2022/03/13 09:12:32;;;;;;;24.97;15.83;;;;;;;;;;6251739;23;20207;-81
2022/03/13 09:14:58;;;;;;;22.47;15.27;;;;;;;;;;6252192;23;20154;-81
2022/03/13 09:17:24;;;;;;;19.80;15.27;;;;;;;;;;6251438;23;20143;-83
2022/03/13 09:19:50;;;;;;;22.20;16.63;;;;;;;;;;6251455;23;20176;-80
2022/03/13 09:22:18;;;;;;;25.67;16.80;;;;;;;;;;6252076;23;20174;-82
2022/03/13 09:24:45;;;;;;;22.70;15.73;;;;;;;;;;6250482;23;20155;-81
2022/03/13 09:27:11;;;;;;;26.30;17.03;;;;;;;;;;6252015;23;20526;-81
2022/03/13 09:29:37;;;;;;;25.67;18.37;;;;;;;;;;6251491;23;20155;-81
2022/03/13 09:32:04;;;;;;;27.57;18.30;;;;;;;;;;6252247;23;20176;-82
2022/03/13 09:34:31;;;;;;;29.43;18.63;;;;;;;;;;6251469;23;20216;-82
2022/03/13 09:36:57;;;;;;;29.27;17.63;;;;;;;;;;6251576;23;20599;-81
2022/03/13 09:39:25;;;;;;;29.40;18.63;;;;;;;;;;6250620;23;20527;-81
2022/03/13 09:41:51;;;;;;;25.90;18.20;;;;;;;;;;6251448;23;20178;-80
2022/03/13 09:44:17;;;;;;;27.90;18.23;;;;;;;;;;6250312;23;20151;-80
2022/03/13 09:46:43;;;;;;;29.00;18.37;;;;;;;;;;6250348;23;20163;-80
2022/03/13 09:49:09;;;;;;;27.00;17.90;;;;;;;;;;6223323;23;20493;-81
2022/03/13 09:51:35;;;;;;;25.80;17.70;;;;;;;;;;6222464;23;20172;-81
2022/03/13 09:54:02;;;;;;;25.53;16.90;;;;;;;;;;6248609;23;20227;-82
2022/03/13 09:56:28;;;;;;;28.13;17.60;;;;;;;;;;6222887;23;20153;-82
2022/03/13 09:58:54;;;;;;;22.67;16.67;;;;;;;;;;6249299;23;20171;-83
2022/03/13 10:01:20;;;;;;;24.23;17.33;;;;;;;;;;6248870;23;20195;-81
2022/03/13 10:03:46;;;;;;;25.30;18.23;;;;;;;;;;6248827;23;20157;-82
2022/03/13 10:06:13;;;;;;;23.40;16.87;;;;;;;;;;6248713;23;20152;-82
2022/03/13 10:08:39;;;;;;;25.73;16.47;;;;;;;;;;6250299;23;20156;-82
2022/03/13 10:11:07;;;;;;;23.83;16.53;;;;;;;;;;6224204;23;20181;-82
2022/03/13 10:13:38;;;;;;;24.27;16.77;;;;;;;;;;6250185;23;20173;-83
2022/03/13 10:16:09;;;;;;;22.90;16.10;;;;;;;;;;6248650;23;20145;-82
2022/03/13 10:18:35;;;;;;;22.90;16.57;;;;;;;;;;6249299;23;20212;-83
2022/03/13 10:21:12;;;;;;;24.40;16.50;;;;;;;;;;6248354;23;20636;-83
2022/03/13 10:23:38;;;;;;;24.13;16.97;;;;;;;;;;6248825;23;20160;-83
2022/03/13 10:26:05;;;;;;;25.40;16.13;;;;;;;;;;6222364;23;20211;-82
2022/03/13 10:28:40;;;;;;;22.37;16.13;;;;;;;;;;6221020;23;20153;-82
2022/03/13 10:31:06;;;;;;;20.97;14.90;;;;;;;;;;6248178;23;20173;-83
2022/03/13 10:33:47;;;;;;;23.10;16.27;;;;;;;;;;6248673;23;20237;-82
2022/03/13 10:36:18;;;;;;;20.60;14.47;;;;;;;;;;6248063;23;20590;-82
2022/03/13 10:38:45;;;;;;;23.90;14.87;;;;;;;;;;6248357;23;20133;-83
2022/03/13 10:41:12;;;;;;;20.43;13.63;;;;;;;;;;6248536;23;20244;-82
2022/03/13 10:43:49;;;;;;;19.20;15.13;;;;;;;;;;6247917;23;20152;-83
2022/03/13 10:46:24;;;;;;;17.60;14.53;;;;;;;;;;6222640;23;20176;-82
2022/03/13 10:48:52;;;;;;;19.30;14.27;;;;;;;;;;6221972;23;20159;-82
2022/03/13 10:51:19;;;;;;;17.47;13.60;;;;;;;;;;6220800;23;20181;-83
2022/03/13 10:53:45;;;;;;;18.70;14.40;;;;;;;;;;6197204;23;20240;-83
2022/03/13 10:56:14;;;;;;;17.53;13.93;;;;;;;;;;6248720;23;20149;-83
2022/03/13 10:58:44;;;;;;;16.70;13.70;;;;;;;;;;6221763;23;20180;-83
2022/03/13 11:01:16;;;;;;;14.53;12.73;;;;;;;;;;6222356;23;20239;-82
2022/03/13 11:03:48;;;;;;;16.80;12.83;;;;;;;;;;6248216;23;20157;-83
2022/03/13 11:06:14;;;;;;;14.93;11.90;;;;;;;;;;6221956;23;20153;-83
2022/03/13 11:08:41;;;;;;;15.43;12.00;;;;;;;;;;6248403;23;20184;-83
2022/03/13 11:11:07;;;;;;;15.17;11.67;;;;;;;;;;6247712;23;20617;-83
2022/03/13 11:13:34;;;;;;;15.80;11.43;;;;;;;;;;6221608;23;20177;-83
2022/03/13 11:16:00;;;;;;;12.83;11.43;;;;;;;;;;6249341;23;20158;-85
2022/03/13 11:18:32;;;;;;;15.00;11.60;;;;;;;;;;6250353;23;20144;-83
2022/03/13 11:20:58;;;;;;;13.57;11.97;;;;;;;;;;6250379;23;20181;-84
2022/03/13 11:23:25;;;;;;;12.93;11.20;;;;;;;;;;6250415;23;20182;-83
2022/03/13 11:25:55;;;;;;;12.60;11.27;;;;;;;;;;6226045;23;20164;-84
2022/03/13 11:28:21;;;;;;;17.00;12.03;;;;;;;;;;6223932;23;20154;-84
2022/03/13 11:30:47;;;;;;;19.60;12.40;;;;;;;;;;6223974;23;20244;-86
2022/03/13 11:33:32;;;;;;;14.63;12.23;;;;;;;;;;6251769;23;20173;-83
2022/03/13 11:36:28;;;;;;;12.37;10.80;;;;;;;;;;6254873;23;20213;-85
2022/03/13 11:38:55;;;;;;;15.03;11.80;;;;;;;;;;6236188;23;20156;-85
2022/03/13 11:41:34;;;;;;;14.67;12.00;;;;;;;;;;6255118;23;20181;-86
2022/03/13 11:44:02;;;;;;;15.03;12.90;;;;;;;;;;6254681;23;20141;-86
2022/03/13 11:46:40;;;;;;;13.57;12.13;;;;;;;;;;6254081;23;20195;-86
2022/03/13 11:49:17;;;;;;;16.53;12.97;;;;;;;;;;6226411;23;20543;-86
2022/03/13 11:51:44;;;;;;;15.00;12.70;;;;;;;;;;6253675;23;20169;-86
2022/03/13 11:54:15;;;;;;;16.23;12.70;;;;;;;;;;6221584;23;20177;-86
2022/03/13 11:56:48;;;;;;;15.97;13.60;;;;;;;;;;6247443;23;20126;-87
2022/03/13 11:59:22;;;;;;;18.43;13.23;;;;;;;;;;6220858;23;20236;-86
2022/03/13 12:01:49;;;;;;;19.03;13.70;;;;;;;;;;6220231;23;20175;-87
2022/03/13 12:04:18;;;;;;;22.03;14.60;;;;;;;;;;6249212;23;20227;-87
2022/03/13 12:06:45;;;;;;;18.70;13.73;;;;;;;;;;6250395;23;20207;-86
2022/03/13 12:09:21;;;;;;;17.97;13.03;;;;;;;;;;6248340;23;20211;-86
2022/03/13 12:11:59;;;;;;;16.87;14.03;;;;;;;;;;6249388;23;20192;-85
2022/03/13 12:14:44;;;;;;;16.30;13.60;;;;;;;;;;6255414;23;20157;-85
2022/03/13 12:17:15;;;;;;;17.17;13.33;;;;;;;;;;6257545;23;20588;-85
2022/03/13 12:19:41;;;;;;;17.30;13.80;;;;;;;;;;6257779;23;20129;-85
2022/03/13 12:22:07;;;;;;;17.10;14.33;;;;;;;;;;6256852;23;20361;-86
2022/03/13 12:24:34;;;;;;;18.67;14.80;;;;;;;;;;6229270;23;20195;-86
2022/03/13 12:27:06;;;;;;;19.60;14.73;;;;;;;;;;6253445;23;20164;-86
2022/03/13 12:29:32;;;;;;;15.23;13.00;;;;;;;;;;6223095;23;20199;-85
2022/03/13 12:31:59;;;;;;;15.00;12.83;;;;;;;;;;6251466;23;20264;-86
2022/03/13 12:34:32;;;;;;;13.53;12.13;;;;;;;;;;6250176;23;20172;-86
2022/03/13 12:37:02;;;;;;;16.83;11.43;;;;;;;;;;6249676;23;20228;-86
2022/03/13 12:39:28;;;;;;;15.13;12.03;;;;;;;;;;6247449;23;20157;-86
2022/03/13 12:41:58;;;;;;;15.37;11.63;;;;;;;;;;6247869;23;20547;-86
2022/03/13 12:44:24;;;;;;;15.63;11.60;;;;;;;;;;6221290;23;20160;-86
2022/03/13 12:46:52;;;;;;;12.33;10.77;;;;;;;;;;6247514;23;20598;-87
2022/03/13 12:49:25;;;;;;;11.23;10.03;;;;;;;;;;6248164;23;20171;-87
2022/03/13 12:51:52;;;;;;;12.37;10.23;;;;;;;;;;6248220;23;20180;-89
2022/03/13 12:54:29;;;;;;;13.37;10.47;;;;;;;;;;6220848;23;20180;-87
2022/03/13 12:56:55;;;;;;;12.37;11.00;;;;;;;;;;6248620;23;20132;-87
2022/03/13 12:59:28;;;;;;;11.60;10.47;;;;;;;;;;6221082;23;20154;-87
2022/03/13 13:02:04;;;;;;;13.97;11.57;;;;;;;;;;6221903;23;20169;-87
2022/03/13 13:04:30;;;;;;;11.93;10.67;;;;;;;;;;6222670;23;20507;-88
2022/03/13 13:06:56;;;;;;;13.07;10.47;;;;;;;;;;6222239;23;20211;-86
2022/03/13 13:09:29;;;;;;;11.27;10.17;;;;;;;;;;6225000;23;20157;-87
2022/03/13 13:11:55;;;;;;;12.47;11.10;;;;;;;;;;6250287;23;20165;-88
2022/03/13 13:14:29;;;;;;;12.43;11.13;;;;;;;;;;6247981;23;20176;-86
2022/03/13 13:16:56;;;;;;;11.67;10.47;;;;;;;;;;6251640;23;20157;-87
2022/03/13 13:19:22;;;;;;;12.90;10.93;;;;;;;;;;6222172;23;20610;-86
2022/03/13 13:21:58;;;;;;;11.80;10.03;;;;;;;;;;6239217;22;20216;-82
2022/03/13 13:24:37;;;;;;;17.13;11.67;;;;;;;;;;6212216;23;20180;-84
2022/03/13 13:27:07;;;;;;;12.13;10.80;;;;;;;;;;6241567;23;20130;-84
2022/03/13 13:29:36;;;;;;;12.67;10.30;;;;;;;;;;6213625;23;20142;-84
2022/03/13 13:32:18;;;;;;;15.37;10.20;;;;;;;;;;6238771;23;20199;-86
2022/03/13 13:35:02;;;;;;;10.60;9.50;;;;;;;;;;6211956;23;20234;-82
2022/03/13 13:37:29;;;;;;;6.83;6.13;;;;;;;;;;6238659;23;20149;-83
2022/03/13 13:40:11;;;;;;;6.07;5.50;;;;;;;;;;6238134;23;20195;-84
2022/03/13 13:42:39;;;;;;;7.17;6.47;;;;;;;;;;6238555;23;20218;-84
2022/03/13 13:45:26;;;;;;;8.23;6.80;;;;;;;;;;6236728;23;20161;-82
2022/03/13 13:47:52;;;;;;;9.27;7.27;;;;;;;;;;6236398;23;20154;-84
2022/03/13 13:50:23;;;;;;;7.37;6.67;;;;;;;;;;6238466;23;20146;-84
2022/03/13 13:53:08;;;;;;;7.43;6.67;;;;;;;;;;6234562;23;20177;-85
2022/03/13 13:55:35;;;;;;;7.80;7.00;;;;;;;;;;6236460;23;20152;-84
2022/03/13 13:58:20;;;;;;;10.83;8.30;;;;;;;;;;6208781;23;20180;-84
2022/03/13 14:00:49;;;;;;;6.90;6.30;;;;;;;;;;6213021;23;20150;-84
2022/03/13 14:03:16;;;;;;;6.80;6.20;;;;;;;;;;6235643;23;20172;-84
2022/03/13 14:06:09;;;;;;;5.10;4.70;;;;;;;;;;6236416;23;20146;-83
2022/03/13 14:08:46;;;;;;;5.30;4.80;;;;;;;;;;6236804;23;20134;-84
2022/03/13 14:11:17;;;;;;;5.43;4.70;;;;;;;;;;6210756;23;20209;-84
2022/03/13 14:13:45;;;;;;;5.37;4.87;;;;;;;;;;6238267;23;20189;-84
2022/03/13 14:16:12;;;;;;;5.60;5.00;;;;;;;;;;6238782;23;20174;-82
2022/03/13 14:18:38;;;;;;;4.77;4.37;;;;;;;;;;6238327;23;20161;-84
2022/03/13 14:21:34;;;;;;;5.50;4.97;;;;;;;;;;6238712;23;20482;-84
2022/03/13 14:24:01;;;;;;;5.57;4.63;;;;;;;;;;6223061;23;20154;-83